createdAt,value
2019-05-13T00:00:15.528Z,15.10
2019-05-13T00:02:44.086Z,15.10
2019-05-13T00:05:14.691Z,15.10
2019-05-13T00:07:43.914Z,15.20
2019-05-13T00:10:14.934Z,15.20
2019-05-13T00:12:44.630Z,15.20
2019-05-13T00:15:13.918Z,15.30
2019-05-13T00:17:44.537Z,15.30
2019-05-13T00:20:14.195Z,15.20
2019-05-13T00:22:44.603Z,15.30
2019-05-13T00:25:14.560Z,15.20
2019-05-13T00:27:44.334Z,15.10
2019-05-13T00:30:14.573Z,15.20
2019-05-13T00:32:44.547Z,15.20
2019-05-13T00:35:14.236Z,15.10
2019-05-13T00:37:44.261Z,15.10
2019-05-13T00:40:14.337Z,14.90
2019-05-13T00:42:44.284Z,14.80
2019-05-13T00:45:14.607Z,14.70
2019-05-13T00:47:43.943Z,14.60
2019-05-13T00:50:14.163Z,14.50
2019-05-13T00:52:44.543Z,14.50
2019-05-13T00:55:14.849Z,14.50
2019-05-13T00:57:43.728Z,14.50
2019-05-13T01:00:14.053Z,14.50
2019-05-13T01:02:44.567Z,14.60
2019-05-13T01:05:14.717Z,14.60
2019-05-13T01:07:44.344Z,14.60
2019-05-13T01:10:13.331Z,14.60
2019-05-13T01:12:43.820Z,14.60
2019-05-13T01:15:13.490Z,14.70
2019-05-13T01:17:44.489Z,14.70
2019-05-13T01:20:14.511Z,14.70
2019-05-13T01:22:44.156Z,14.70
2019-05-13T01:25:14.387Z,14.80
2019-05-13T01:27:44.150Z,14.80
2019-05-13T01:30:13.378Z,14.80
2019-05-13T01:32:44.623Z,14.80
2019-05-13T01:35:14.594Z,14.80
2019-05-13T01:37:43.389Z,14.80
2019-05-13T01:40:13.760Z,14.80
2019-05-13T01:42:44.338Z,14.70
2019-05-13T01:45:13.700Z,14.70
2019-05-13T01:47:44.069Z,14.70
2019-05-13T01:50:14.266Z,14.70
2019-05-13T01:52:44.639Z,14.80
2019-05-13T01:55:14.501Z,14.70
2019-05-13T01:57:44.356Z,14.70
2019-05-13T02:00:14.208Z,14.70
2019-05-13T02:02:44.502Z,14.60
2019-05-13T02:05:14.042Z,14.70
2019-05-13T02:07:56.545Z,14.70
2019-05-13T02:10:14.610Z,14.70
2019-05-13T02:12:44.643Z,14.70
2019-05-13T02:15:14.519Z,14.70
2019-05-13T02:17:44.779Z,14.70
2019-05-13T02:20:14.743Z,14.80
2019-05-13T02:22:44.467Z,14.70
2019-05-13T02:25:13.795Z,14.70
2019-05-13T02:27:44.143Z,14.70
2019-05-13T02:30:26.824Z,14.70
2019-05-13T02:32:54.760Z,14.70
2019-05-13T02:35:23.310Z,14.70
2019-05-13T02:37:52.623Z,14.70
2019-05-13T02:40:22.631Z,14.70
2019-05-13T02:42:52.272Z,14.70
2019-05-13T02:45:22.734Z,14.80
2019-05-13T02:47:52.197Z,14.80
2019-05-13T02:50:22.634Z,14.70
2019-05-13T02:52:53.102Z,14.70
2019-05-13T02:55:22.310Z,14.70
2019-05-13T02:57:52.821Z,14.70
2019-05-13T03:00:23.403Z,14.70
2019-05-13T03:02:52.432Z,14.70
2019-05-13T03:05:22.015Z,14.70
2019-05-13T03:07:53.076Z,14.70
2019-05-13T03:10:22.433Z,14.70
2019-05-13T03:12:53.461Z,14.70
2019-05-13T03:15:23.097Z,14.70
2019-05-13T03:17:55.476Z,14.80
2019-05-13T03:20:23.829Z,14.70
2019-05-13T03:22:52.777Z,14.70
2019-05-13T03:25:22.741Z,14.70
2019-05-13T03:27:53.986Z,14.70
2019-05-13T03:30:25.173Z,14.80
2019-05-13T03:32:59.038Z,14.70
2019-05-13T03:35:26.804Z,14.70
2019-05-13T03:37:52.836Z,14.70
2019-05-13T03:40:23.086Z,14.80
2019-05-13T03:42:53.371Z,14.80
2019-05-13T03:45:23.962Z,14.80
2019-05-13T03:47:52.760Z,14.70
2019-05-13T03:50:22.734Z,14.80
2019-05-13T03:52:52.471Z,14.80
2019-05-13T03:55:23.065Z,14.70
2019-05-13T03:57:53.308Z,14.70
2019-05-13T04:00:23.475Z,14.80
2019-05-13T04:02:52.233Z,14.70
2019-05-13T04:05:22.965Z,14.80
2019-05-13T04:07:52.311Z,14.80
2019-05-13T04:10:23.079Z,14.80
2019-05-13T04:12:52.706Z,14.80
2019-05-13T04:15:23.469Z,14.80
2019-05-13T04:17:53.095Z,14.80
2019-05-13T04:20:23.066Z,14.80
2019-05-13T04:22:52.936Z,14.80
2019-05-13T04:25:23.126Z,14.80
2019-05-13T04:27:53.262Z,14.80
2019-05-13T04:30:22.637Z,14.80
2019-05-13T04:32:53.553Z,14.70
2019-05-13T04:35:23.463Z,14.80
2019-05-13T04:37:52.783Z,14.80
2019-05-13T04:40:23.150Z,14.80
2019-05-13T04:42:53.521Z,14.90
2019-05-13T04:45:23.870Z,14.90
2019-05-13T04:47:52.855Z,14.80
2019-05-13T04:50:22.787Z,14.90
2019-05-13T04:52:52.647Z,14.90
2019-05-13T04:55:22.985Z,14.90
2019-05-13T04:57:53.271Z,15.00
2019-05-13T05:00:33.661Z,15.00
2019-05-13T05:03:07.954Z,15.00
2019-05-13T05:05:42.521Z,15.10
2019-05-13T05:08:48.132Z,15.10
2019-05-13T05:11:28.480Z,15.20
2019-05-13T05:14:06.177Z,15.10
2019-05-13T05:17:12.421Z,15.20
2019-05-13T05:20:03.501Z,15.20
2019-05-13T05:22:47.757Z,15.20
2019-05-13T05:25:34.266Z,15.20
2019-05-13T05:28:33.734Z,15.30
2019-05-13T05:31:05.386Z,15.30
2019-05-13T05:34:03.908Z,15.30
2019-05-13T05:36:47.768Z,15.40
2019-05-13T05:39:19.446Z,15.30
2019-05-13T05:41:47.788Z,15.40
2019-05-13T05:44:16.136Z,15.50
2019-05-13T05:46:44.575Z,15.50
2019-05-13T05:49:13.417Z,15.60
2019-05-13T05:51:42.334Z,15.70
2019-05-13T05:54:13.979Z,15.70
2019-05-13T05:56:41.562Z,15.80
2019-05-13T05:59:12.526Z,15.80
2019-05-13T06:01:41.569Z,15.80
2019-05-13T06:04:22.465Z,15.80
2019-05-13T06:06:52.223Z,15.80
2019-05-13T06:09:21.315Z,15.80
2019-05-13T06:11:52.092Z,15.80
2019-05-13T06:14:21.922Z,15.80
2019-05-13T06:16:51.888Z,15.90
2019-05-13T06:19:22.504Z,15.90
2019-05-13T06:21:51.403Z,15.90
2019-05-13T06:24:22.761Z,16.00
2019-05-13T06:26:51.899Z,16.00
2019-05-13T06:29:22.083Z,16.10
2019-05-13T06:31:51.970Z,16.10
2019-05-13T06:34:21.484Z,16.20
2019-05-13T06:36:52.261Z,16.20
2019-05-13T06:39:22.227Z,16.20
2019-05-13T06:41:51.810Z,16.30
2019-05-13T06:44:21.447Z,16.30
2019-05-13T06:46:51.683Z,16.30
2019-05-13T06:49:21.689Z,16.30
2019-05-13T06:51:52.448Z,16.30
2019-05-13T06:54:21.995Z,16.30
2019-05-13T06:56:51.712Z,16.40
2019-05-13T06:59:22.318Z,16.30
2019-05-13T07:01:51.401Z,16.30
2019-05-13T07:04:21.864Z,16.30
2019-05-13T07:06:56.089Z,16.30
2019-05-13T07:09:21.602Z,16.40
2019-05-13T07:11:51.821Z,16.40
2019-05-13T07:14:21.824Z,16.40
2019-05-13T07:16:52.435Z,16.60
2019-05-13T07:19:20.500Z,16.60
2019-05-13T07:21:48.931Z,16.70
2019-05-13T07:24:17.288Z,16.70
2019-05-13T07:26:45.654Z,16.70
2019-05-13T07:29:14.522Z,16.80
2019-05-13T07:31:43.597Z,16.70
2019-05-13T07:34:12.016Z,16.80
2019-05-13T07:36:42.159Z,16.80
2019-05-13T07:39:11.958Z,16.80
2019-05-13T07:41:42.956Z,16.90
2019-05-13T07:44:11.854Z,16.90
2019-05-13T07:47:02.915Z,17.00
2019-05-13T07:49:31.593Z,17.00
2019-05-13T07:52:01.567Z,17.00
2019-05-13T07:54:32.562Z,17.10
2019-05-13T07:57:01.889Z,17.20
2019-05-13T07:59:31.837Z,17.30
2019-05-13T08:02:02.253Z,17.50
2019-05-13T08:04:33.007Z,17.60
2019-05-13T08:07:01.884Z,17.70
2019-05-13T08:09:31.938Z,17.90
2019-05-13T08:12:10.262Z,18.10
2019-05-13T08:14:32.562Z,18.20
2019-05-13T08:17:02.738Z,18.20
2019-05-13T08:19:32.554Z,18.30
2019-05-13T08:22:02.076Z,18.40
2019-05-13T08:24:31.596Z,18.50
2019-05-13T08:27:02.103Z,18.50
2019-05-13T08:29:32.748Z,18.60
2019-05-13T08:32:02.899Z,18.60
2019-05-13T08:34:32.860Z,18.60
2019-05-13T08:37:02.850Z,18.60
2019-05-13T08:39:35.788Z,18.60
2019-05-13T08:42:12.798Z,18.70
2019-05-13T08:44:32.243Z,18.70
2019-05-13T08:47:03.003Z,18.80
2019-05-13T08:49:32.584Z,18.80
2019-05-13T08:52:01.750Z,18.80
2019-05-13T08:54:32.916Z,18.80
2019-05-13T08:57:02.891Z,18.90
2019-05-13T08:59:32.452Z,18.90
2019-05-13T09:02:03.152Z,19.00
2019-05-13T09:04:31.579Z,19.00
2019-05-13T09:07:02.290Z,18.90
2019-05-13T09:09:31.456Z,18.90
2019-05-13T09:12:02.300Z,18.90
2019-05-13T09:14:32.330Z,19.00
2019-05-13T09:17:01.862Z,19.10
2019-05-13T09:19:32.184Z,19.30
2019-05-13T09:22:03.124Z,19.40
2019-05-13T09:24:36.959Z,19.50
2019-05-13T09:27:01.906Z,19.60
2019-05-13T09:29:32.117Z,19.70
2019-05-13T09:32:03.831Z,19.90
2019-05-13T09:34:32.835Z,20.00
2019-05-13T09:37:02.827Z,20.10
2019-05-13T09:39:32.321Z,20.20
2019-05-13T09:42:02.702Z,20.30
2019-05-13T09:47:02.727Z,20.30
2019-05-13T09:49:32.885Z,20.50
2019-05-13T09:52:01.806Z,20.50
2019-05-13T09:54:32.577Z,20.60
2019-05-13T09:57:01.731Z,20.60
2019-05-13T09:59:31.889Z,20.60
2019-05-13T10:02:02.961Z,20.60
2019-05-13T10:04:31.716Z,20.60
2019-05-13T10:07:02.232Z,20.70
2019-05-13T10:09:32.718Z,20.70
2019-05-13T10:12:03.026Z,20.80
2019-05-13T10:14:32.758Z,20.80
2019-05-13T10:17:05.766Z,20.80
2019-05-13T10:19:36.799Z,20.90
2019-05-13T10:22:05.192Z,21.10
2019-05-13T10:24:33.805Z,21.30
2019-05-13T10:27:02.709Z,21.50
2019-05-13T10:29:32.100Z,21.60
2019-05-13T10:32:02.667Z,21.70
2019-05-13T10:34:32.095Z,21.70
2019-05-13T10:37:02.237Z,21.80
2019-05-13T10:39:31.086Z,22.00
2019-05-13T10:41:59.488Z,22.00
2019-05-13T10:44:27.914Z,22.10
2019-05-13T10:46:56.297Z,22.20
2019-05-13T10:49:24.693Z,22.20
2019-05-13T10:51:53.123Z,22.30
2019-05-13T10:54:21.811Z,22.40
2019-05-13T10:56:53.073Z,22.50
2019-05-13T10:59:22.947Z,22.70
2019-05-13T11:01:50.460Z,22.90
2019-05-13T11:04:18.875Z,23.00
2019-05-13T11:06:48.920Z,23.10
2019-05-13T11:09:17.370Z,23.30
2019-05-13T11:12:05.737Z,23.50
2019-05-13T11:14:34.084Z,23.50
2019-05-13T11:17:03.812Z,23.60
2019-05-13T11:19:36.637Z,23.60
2019-05-13T11:22:02.989Z,23.60
2019-05-13T11:24:32.463Z,23.70
2019-05-13T11:27:02.840Z,23.70
2019-05-13T11:29:32.363Z,23.80
2019-05-13T11:32:02.659Z,23.90
2019-05-13T11:34:32.860Z,24.00
2019-05-13T11:37:03.604Z,24.10
2019-05-13T11:39:32.539Z,24.30
2019-05-13T11:42:02.352Z,24.40
2019-05-13T11:44:32.254Z,24.60
2019-05-13T11:47:02.317Z,24.60
2019-05-13T11:49:31.931Z,24.70
2019-05-13T11:52:02.633Z,24.60
2019-05-13T11:54:30.374Z,24.50
2019-05-13T11:57:02.572Z,24.30
2019-05-13T11:59:28.777Z,24.30
2019-05-13T12:01:57.140Z,24.30
2019-05-13T12:04:25.755Z,24.30
2019-05-13T12:06:54.885Z,24.30
2019-05-13T12:09:23.576Z,24.20
2019-05-13T12:11:52.058Z,24.10
2019-05-13T12:14:43.040Z,24.10
2019-05-13T12:16:50.472Z,24.10
2019-05-13T12:19:21.339Z,24.10
2019-05-13T12:21:49.052Z,24.00
2019-05-13T12:24:17.468Z,23.80
2019-05-13T12:26:45.844Z,23.70
2019-05-13T12:29:18.908Z,23.50
2019-05-13T12:31:44.222Z,23.40
2019-05-13T12:34:13.289Z,23.30
2019-05-13T12:36:43.258Z,23.20
2019-05-13T12:39:14.290Z,23.20
2019-05-13T12:41:42.799Z,23.20
2019-05-13T12:44:12.955Z,23.10
2019-05-13T12:46:48.870Z,23.00
2019-05-13T12:49:14.238Z,23.00
2019-05-13T12:51:43.919Z,23.00
2019-05-13T12:54:13.544Z,22.80
2019-05-13T12:56:42.517Z,22.80
2019-05-13T12:59:13.209Z,22.70
2019-05-13T13:01:41.223Z,22.70
2019-05-13T13:04:12.361Z,22.70
2019-05-13T13:06:44.656Z,22.60
2019-05-13T13:09:12.390Z,22.70
2019-05-13T13:11:43.605Z,22.70
2019-05-13T13:14:14.775Z,22.60
2019-05-13T13:16:42.344Z,22.60
2019-05-13T13:19:14.144Z,22.50
2019-05-13T13:21:40.583Z,22.50
2019-05-13T13:24:08.970Z,22.40
2019-05-13T13:26:37.338Z,22.30
2019-05-13T13:29:05.925Z,22.30
2019-05-13T13:31:34.345Z,22.30
2019-05-13T13:34:11.215Z,22.30
2019-05-13T13:36:33.815Z,22.30
2019-05-13T13:39:03.775Z,22.30
2019-05-13T13:41:32.947Z,22.40
2019-05-13T13:44:05.628Z,22.40
2019-05-13T13:46:41.274Z,22.30
2019-05-13T13:49:01.781Z,22.20
2019-05-13T13:51:34.182Z,22.20
2019-05-13T13:54:00.334Z,22.20
2019-05-13T13:56:28.717Z,22.20
2019-05-13T13:58:57.168Z,22.10
2019-05-13T14:01:27.218Z,22.10
2019-05-13T14:03:55.804Z,22.10
2019-05-13T14:06:25.320Z,20.30
2019-05-13T14:07:22.866Z,22.10
2019-05-13T14:08:54.183Z,22.00
2019-05-13T14:11:23.325Z,21.90
2019-05-13T14:13:51.954Z,21.90
2019-05-13T14:16:27.985Z,21.90
2019-05-13T14:18:52.248Z,21.90
2019-05-13T14:21:21.591Z,21.80
2019-05-13T14:23:51.973Z,21.70
2019-05-13T14:26:22.231Z,21.70
2019-05-13T14:28:53.275Z,21.60
2019-05-13T14:31:21.442Z,21.60
2019-05-13T14:33:52.057Z,21.50
2019-05-13T14:36:22.723Z,21.40
2019-05-13T14:38:52.675Z,21.40
2019-05-13T14:41:21.978Z,21.40
2019-05-13T14:43:51.641Z,21.50
2019-05-13T14:46:25.273Z,21.50
2019-05-13T14:48:50.480Z,21.50
2019-05-13T14:51:19.047Z,21.50
2019-05-13T14:53:47.440Z,21.60
2019-05-13T14:56:15.850Z,21.50
2019-05-13T14:58:44.365Z,21.60
2019-05-13T15:01:19.059Z,21.50
2019-05-13T15:03:42.918Z,21.40
2019-05-13T15:06:11.933Z,21.40
2019-05-13T15:08:42.121Z,21.30
2019-05-13T15:11:12.563Z,21.20
2019-05-13T15:13:42.484Z,21.20
2019-05-13T15:16:11.513Z,21.20
2019-05-13T15:18:41.627Z,21.00
2019-05-13T15:21:12.153Z,21.00
2019-05-13T15:23:42.267Z,20.90
2019-05-13T15:26:11.683Z,20.90
2019-05-13T15:28:42.162Z,20.90
2019-05-13T15:31:11.492Z,20.80
2019-05-13T15:33:41.548Z,20.70
2019-05-13T15:36:11.975Z,20.80
2019-05-13T15:38:41.421Z,20.80
2019-05-13T15:41:14.740Z,20.80
2019-05-13T15:43:41.873Z,20.90
2019-05-13T15:46:12.558Z,20.90
2019-05-13T15:48:42.211Z,20.80
2019-05-13T15:51:11.312Z,20.90
2019-05-13T15:53:40.048Z,20.90
2019-05-13T15:56:08.490Z,20.90
2019-05-13T15:58:39.769Z,20.90
2019-05-13T16:01:06.965Z,20.90
2019-05-13T16:03:35.380Z,20.80
2019-05-13T16:06:03.866Z,20.80
2019-05-13T16:08:32.239Z,20.80
2019-05-13T16:11:02.235Z,20.70
2019-05-13T16:13:31.295Z,20.70
2019-05-13T16:16:01.518Z,20.70
2019-05-13T16:18:31.688Z,20.70
2019-05-13T16:21:01.520Z,20.70
2019-05-13T16:23:32.490Z,20.60
2019-05-13T16:26:01.645Z,20.60
2019-05-13T16:28:32.611Z,20.60
2019-05-13T16:31:02.285Z,20.60
2019-05-13T16:33:31.385Z,20.60
2019-05-13T16:36:02.259Z,20.60
2019-05-13T16:38:32.619Z,20.50
2019-05-13T16:41:00.324Z,20.50
2019-05-13T16:43:28.733Z,20.50
2019-05-13T16:45:57.159Z,20.40
2019-05-13T16:48:25.608Z,20.40
2019-05-13T16:50:54.026Z,20.30
2019-05-13T16:53:25.893Z,20.30
2019-05-13T16:55:52.631Z,20.30
2019-05-13T16:58:24.799Z,20.30
2019-05-13T17:00:52.082Z,20.30
2019-05-13T17:03:21.269Z,20.20
2019-05-13T17:05:51.419Z,20.20
2019-05-13T17:08:19.887Z,20.20
2019-05-13T17:10:48.305Z,20.20
2019-05-13T17:13:18.009Z,20.20
2019-05-13T17:15:46.303Z,20.20
2019-05-13T17:18:15.440Z,20.20
2019-05-13T17:20:44.136Z,20.20
2019-05-13T17:23:12.701Z,20.20
2019-05-13T17:25:42.360Z,20.20
2019-05-13T17:28:13.421Z,20.20
2019-05-13T17:30:41.106Z,20.10
2019-05-13T17:33:11.603Z,20.10
2019-05-13T17:35:41.734Z,20.10
2019-05-13T17:38:11.394Z,20.10
2019-05-13T17:40:41.964Z,20.10
2019-05-13T17:43:11.773Z,20.00
2019-05-13T17:45:41.730Z,20.10
2019-05-13T17:48:25.463Z,20.00
2019-05-13T17:50:41.339Z,19.90
2019-05-13T17:53:11.408Z,19.90
2019-05-13T17:55:40.050Z,19.80
2019-05-13T17:58:08.511Z,19.80
2019-05-13T18:00:37.107Z,19.80
2019-05-13T18:03:05.541Z,19.70
2019-05-13T18:05:34.045Z,19.80
2019-05-13T18:08:02.537Z,19.70
2019-05-13T18:10:31.869Z,19.70
2019-05-13T18:13:01.789Z,19.60
2019-05-13T18:15:31.389Z,19.60
2019-05-13T18:18:01.481Z,19.60
2019-05-13T18:20:32.017Z,19.50
2019-05-13T18:23:01.593Z,19.50
2019-05-13T18:25:31.677Z,19.50
2019-05-13T18:28:01.576Z,19.50
2019-05-13T18:30:31.754Z,19.50
2019-05-13T18:33:01.268Z,19.40
2019-05-13T18:35:31.493Z,19.40
2019-05-13T18:38:01.369Z,19.30
2019-05-13T18:40:31.526Z,19.30
2019-05-13T18:43:01.895Z,19.30
2019-05-13T18:45:30.169Z,19.30
2019-05-13T18:47:58.568Z,19.30
2019-05-13T18:50:26.958Z,19.20
2019-05-13T18:52:55.422Z,19.20
2019-05-13T18:55:24.023Z,19.20
2019-05-13T18:57:52.376Z,19.20
2019-05-13T19:00:21.991Z,19.10
2019-05-13T19:02:50.358Z,19.10
2019-05-13T19:05:21.055Z,19.00
2019-05-13T19:07:51.105Z,19.10
2019-05-13T19:10:18.943Z,19.00
2019-05-13T19:12:47.332Z,19.00
2019-05-13T19:15:16.790Z,19.00
2019-05-13T19:17:45.186Z,18.90
2019-05-13T19:20:13.743Z,18.90
2019-05-13T19:22:42.108Z,18.90
2019-05-13T19:25:11.962Z,18.90
2019-05-13T19:27:41.362Z,18.90
2019-05-13T19:30:11.881Z,18.90
2019-05-13T19:32:41.589Z,18.90
2019-05-13T19:35:11.659Z,18.80
2019-05-13T19:37:42.462Z,18.80
2019-05-13T19:40:12.706Z,18.80
2019-05-13T19:42:41.824Z,18.80
2019-05-13T19:45:12.187Z,18.70
2019-05-13T19:47:41.853Z,18.70
2019-05-13T19:50:10.480Z,18.70
2019-05-13T19:52:41.289Z,18.60
2019-05-13T19:55:08.998Z,18.60
2019-05-13T19:57:37.457Z,18.60
2019-05-13T20:00:10.609Z,18.60
2019-05-13T20:02:37.860Z,18.60
2019-05-13T20:05:07.252Z,18.60
2019-05-13T20:07:35.687Z,18.60
2019-05-13T20:10:06.578Z,18.60
2019-05-13T20:12:34.969Z,18.50
2019-05-13T20:15:04.583Z,18.50
2019-05-13T20:17:32.981Z,18.50
2019-05-13T20:20:21.268Z,18.40
2019-05-13T20:22:51.757Z,18.40
2019-05-13T20:25:21.799Z,18.40
2019-05-13T20:27:51.561Z,18.40
2019-05-13T20:30:21.898Z,18.40
2019-05-13T20:32:51.559Z,18.40
2019-05-13T20:35:21.931Z,18.30
2019-05-13T20:37:51.614Z,18.30
2019-05-13T20:40:22.077Z,18.30
2019-05-13T20:42:51.549Z,18.30
2019-05-13T20:45:22.242Z,18.30
2019-05-13T20:47:50.246Z,18.30
2019-05-13T20:50:18.675Z,18.30
2019-05-13T20:52:48.073Z,18.30
2019-05-13T20:55:16.461Z,18.20
2019-05-13T20:57:44.950Z,18.20
2019-05-13T21:00:13.466Z,18.20
2019-05-13T21:02:41.941Z,18.20
2019-05-13T21:05:12.137Z,18.10
2019-05-13T21:07:41.709Z,18.10
2019-05-13T21:10:12.083Z,18.10
2019-05-13T21:12:41.968Z,18.10
2019-05-13T21:15:13.004Z,18.00
2019-05-13T21:17:41.513Z,18.00
2019-05-13T21:20:19.648Z,18.00
2019-05-13T21:22:42.210Z,18.00
2019-05-13T21:25:10.180Z,17.90
2019-05-13T21:27:38.699Z,17.90
2019-05-13T21:30:19.463Z,17.90
2019-05-13T21:32:47.892Z,17.90
2019-05-13T21:35:16.318Z,17.90
2019-05-13T21:37:44.736Z,17.80
2019-05-13T21:40:13.256Z,17.90
2019-05-13T21:42:42.059Z,17.90
2019-05-13T21:45:11.254Z,17.90
2019-05-13T21:47:39.881Z,17.90
2019-05-13T21:50:08.682Z,17.80
2019-05-13T21:52:37.087Z,17.80
2019-05-13T21:55:06.460Z,17.80
2019-05-13T21:57:34.855Z,17.80
2019-05-13T22:00:05.526Z,17.80
2019-05-13T22:02:33.961Z,17.80
2019-05-13T22:05:02.340Z,17.80
2019-05-13T22:07:31.508Z,17.80
2019-05-13T22:10:02.010Z,17.80
2019-05-13T22:12:32.102Z,17.80
2019-05-13T22:15:00.996Z,17.80
2019-05-13T22:17:31.552Z,17.80
2019-05-13T22:20:01.706Z,17.80
2019-05-13T22:22:32.001Z,17.80
2019-05-13T22:25:01.872Z,17.80
2019-05-13T22:27:29.827Z,17.80
2019-05-13T22:29:58.414Z,17.70
2019-05-13T22:32:26.781Z,17.70
2019-05-13T22:34:55.229Z,17.70
2019-05-13T22:37:23.862Z,17.70
2019-05-13T22:39:52.264Z,17.60
2019-05-13T22:42:21.574Z,17.70
2019-05-13T22:44:52.256Z,17.60
2019-05-13T22:47:21.998Z,17.60
2019-05-13T22:49:50.657Z,17.60
2019-05-13T22:52:18.973Z,17.50
2019-05-13T22:54:47.340Z,17.50
2019-05-13T22:57:15.783Z,17.50
2019-05-13T22:59:44.156Z,17.50
2019-05-13T23:02:12.612Z,17.50
2019-05-13T23:04:41.867Z,17.50
2019-05-13T23:07:11.787Z,17.50
2019-05-13T23:09:41.596Z,17.50
2019-05-13T23:12:12.086Z,17.50
2019-05-13T23:14:41.440Z,17.40
2019-05-13T23:17:12.280Z,17.40
2019-05-13T23:19:41.474Z,17.30
2019-05-13T23:22:12.119Z,17.30
2019-05-13T23:24:41.757Z,17.30
2019-05-13T23:27:11.078Z,17.30
2019-05-13T23:29:41.255Z,17.30
2019-05-13T23:32:11.821Z,17.30
2019-05-13T23:34:42.063Z,17.30
2019-05-13T23:37:11.390Z,17.30
2019-05-13T23:39:41.647Z,17.30
2019-05-13T23:42:12.175Z,17.20
2019-05-13T23:44:41.384Z,17.20
2019-05-13T23:47:11.483Z,17.30
2019-05-13T23:49:42.106Z,17.30
2019-05-13T23:52:11.633Z,17.30
2019-05-13T23:54:42.313Z,17.30
2019-05-13T23:57:11.712Z,17.30
2019-05-13T23:59:41.951Z,17.30
